createdAt,value
2017-08-23T00:01:22.224Z,65.50
2017-08-23T00:03:49.172Z,65.50
2017-08-23T00:06:16.051Z,65.50
2017-08-23T00:08:42.946Z,65.40
2017-08-23T00:11:09.899Z,65.30
2017-08-23T00:13:36.767Z,65.10
2017-08-23T00:16:03.736Z,65.00
2017-08-23T00:18:30.626Z,64.90
2017-08-23T00:20:57.607Z,64.50
2017-08-23T00:23:24.541Z,64.50
2017-08-23T00:25:51.424Z,64.50
2017-08-23T00:28:18.422Z,64.80
2017-08-23T00:30:45.313Z,65.00
2017-08-23T00:33:12.185Z,65.00
2017-08-23T00:35:39.202Z,65.20
2017-08-23T00:38:06.078Z,65.00
2017-08-23T00:40:33.770Z,64.60
2017-08-23T00:43:00.653Z,65.00
2017-08-23T00:45:27.634Z,65.40
2017-08-23T00:47:54.561Z,65.10
2017-08-23T00:50:21.500Z,65.70
2017-08-23T00:52:48.551Z,65.90
2017-08-23T00:55:15.528Z,65.60
2017-08-23T00:57:43.288Z,65.60
2017-08-23T01:00:10.247Z,65.50
2017-08-23T01:02:37.963Z,64.70
2017-08-23T01:05:04.867Z,64.60
2017-08-23T01:07:31.750Z,64.70
2017-08-23T01:09:58.705Z,65.10
2017-08-23T01:12:25.579Z,65.30
2017-08-23T01:14:52.538Z,65.60
2017-08-23T01:17:19.421Z,65.20
2017-08-23T01:19:46.295Z,65.10
2017-08-23T01:22:13.402Z,65.10
2017-08-23T01:24:40.269Z,65.00
2017-08-23T01:27:07.162Z,65.20
2017-08-23T01:29:36.145Z,64.90
2017-08-23T01:32:03.885Z,65.20
2017-08-23T01:34:30.809Z,65.20
2017-08-23T01:36:57.867Z,65.30
2017-08-23T01:39:24.755Z,65.20
2017-08-23T01:41:51.638Z,65.00
2017-08-23T01:44:18.608Z,65.20
2017-08-23T01:46:45.573Z,64.90
2017-08-23T01:49:12.460Z,64.80
2017-08-23T01:51:40.179Z,64.90
2017-08-23T01:54:07.184Z,64.90
2017-08-23T01:56:34.195Z,64.30
2017-08-23T01:59:01.060Z,64.70
2017-08-23T02:01:28.008Z,64.90
2017-08-23T02:03:54.901Z,65.10
2017-08-23T02:06:21.821Z,65.40
2017-08-23T02:08:48.740Z,66.00
2017-08-23T02:11:15.643Z,66.20
2017-08-23T02:13:42.595Z,66.40
2017-08-23T02:16:09.455Z,66.10
2017-08-23T02:18:36.421Z,66.00
2017-08-23T02:21:03.291Z,66.10
2017-08-23T02:23:30.159Z,66.40
2017-08-23T02:25:57.097Z,66.40
2017-08-23T02:28:24.049Z,66.10
2017-08-23T02:30:50.931Z,65.70
2017-08-23T02:33:17.831Z,65.50
2017-08-23T02:35:44.784Z,65.60
2017-08-23T02:38:11.697Z,65.40
2017-08-23T02:40:38.576Z,64.80
2017-08-23T02:43:05.560Z,64.30
2017-08-23T02:45:33.244Z,63.80
2017-08-23T02:48:00.141Z,63.80
2017-08-23T02:50:27.077Z,63.30
2017-08-23T02:52:53.983Z,63.40
2017-08-23T02:55:21.012Z,63.50
2017-08-23T02:57:48.024Z,62.90
2017-08-23T03:00:15.006Z,63.10
2017-08-23T03:02:42.686Z,63.10
2017-08-23T03:05:09.567Z,62.90
2017-08-23T03:07:36.527Z,62.90
2017-08-23T03:10:03.401Z,62.50
2017-08-23T03:12:30.302Z,62.40
2017-08-23T03:14:57.279Z,63.20
2017-08-23T03:17:24.162Z,63.20
2017-08-23T03:19:51.036Z,63.80
2017-08-23T03:22:17.994Z,64.00
2017-08-23T03:24:44.865Z,64.20
2017-08-23T03:27:11.741Z,64.30
2017-08-23T03:29:38.703Z,64.50
2017-08-23T03:32:05.657Z,64.80
2017-08-23T03:34:32.613Z,65.80
2017-08-23T03:36:59.572Z,65.60
2017-08-23T03:39:26.444Z,65.80
2017-08-23T03:41:53.396Z,65.90
2017-08-23T03:44:20.294Z,65.70
2017-08-23T03:46:47.255Z,65.30
2017-08-23T03:49:14.215Z,65.70
2017-08-23T03:51:41.074Z,65.50
2017-08-23T03:54:08.016Z,65.40
2017-08-23T03:56:34.995Z,65.50
2017-08-23T03:59:02.596Z,66.20
2017-08-23T04:01:29.471Z,66.20
2017-08-23T04:03:56.451Z,65.70
2017-08-23T04:06:23.393Z,65.90
2017-08-23T04:08:50.308Z,65.30
2017-08-23T04:11:17.186Z,65.30
2017-08-23T04:13:44.231Z,64.80
2017-08-23T04:16:11.113Z,64.80
2017-08-23T04:18:38.103Z,64.90
2017-08-23T04:21:05.072Z,64.80
2017-08-23T04:23:32.024Z,65.10
2017-08-23T04:26:03.396Z,65.10
2017-08-23T04:28:30.413Z,64.80
2017-08-23T04:30:58.168Z,64.50
2017-08-23T04:33:25.802Z,65.30
2017-08-23T04:35:52.696Z,64.40
2017-08-23T04:38:19.649Z,64.30
2017-08-23T04:40:46.596Z,64.30
2017-08-23T04:43:13.645Z,64.10
2017-08-23T04:45:40.532Z,64.00
2017-08-23T04:48:07.472Z,63.90
2017-08-23T04:50:34.372Z,63.70
2017-08-23T04:53:01.264Z,63.60
2017-08-23T04:55:28.201Z,63.60
2017-08-23T04:57:57.501Z,64.10
2017-08-23T05:00:24.481Z,64.10
2017-08-23T05:02:52.213Z,63.90
2017-08-23T05:05:19.141Z,63.70
2017-08-23T05:07:46.131Z,63.70
2017-08-23T05:10:13.036Z,63.30
2017-08-23T05:12:39.943Z,63.00
2017-08-23T05:15:06.940Z,63.40
2017-08-23T05:17:33.867Z,63.60
2017-08-23T05:20:00.846Z,63.20
2017-08-23T05:22:27.751Z,63.50
2017-08-23T05:24:54.649Z,63.30
2017-08-23T05:27:21.612Z,63.40
2017-08-23T05:29:49.225Z,64.00
2017-08-23T05:32:16.092Z,63.20
2017-08-23T05:34:43.093Z,63.90
2017-08-23T05:37:09.952Z,63.30
2017-08-23T05:39:38.384Z,62.80
2017-08-23T05:42:06.429Z,62.90
2017-08-23T05:44:33.316Z,62.90
2017-08-23T05:47:01.002Z,61.40
2017-08-23T05:49:27.884Z,61.50
2017-08-23T05:51:54.843Z,61.20
2017-08-23T05:54:21.776Z,60.90
2017-08-23T05:56:48.717Z,60.90
2017-08-23T05:59:15.682Z,61.00
2017-08-23T06:01:42.599Z,61.40
2017-08-23T06:04:09.470Z,61.10
2017-08-23T06:06:36.435Z,61.90
2017-08-23T06:09:03.506Z,62.30
2017-08-23T06:11:30.497Z,62.20
2017-08-23T06:13:57.404Z,63.10
2017-08-23T06:16:24.301Z,63.70
2017-08-23T06:18:51.269Z,63.10
2017-08-23T06:21:18.163Z,63.30
2017-08-23T06:23:45.071Z,63.30
2017-08-23T06:26:12.025Z,63.40
2017-08-23T06:28:38.918Z,62.90
2017-08-23T06:31:05.812Z,63.30
2017-08-23T06:33:33.650Z,63.30
2017-08-23T06:36:00.522Z,63.20
2017-08-23T06:38:27.406Z,62.70
2017-08-23T06:40:54.333Z,63.20
2017-08-23T06:43:21.212Z,64.20
2017-08-23T06:45:48.172Z,63.50
2017-08-23T06:48:15.776Z,63.80
2017-08-23T06:50:42.776Z,63.70
2017-08-23T06:53:09.777Z,64.00
2017-08-23T06:55:36.639Z,63.80
2017-08-23T06:58:03.584Z,63.10
2017-08-23T07:00:30.517Z,62.60
2017-08-23T07:02:57.400Z,61.50
2017-08-23T07:05:24.283Z,60.80
2017-08-23T07:07:52.046Z,60.70
2017-08-23T07:10:19.008Z,60.30
2017-08-23T07:12:46.634Z,60.30
2017-08-23T07:15:13.496Z,60.10
2017-08-23T07:17:40.459Z,59.10
2017-08-23T07:20:08.602Z,58.90
2017-08-23T07:22:35.553Z,58.90
2017-08-23T07:25:02.496Z,58.10
2017-08-23T07:27:29.451Z,58.80
2017-08-23T07:29:56.399Z,57.40
2017-08-23T07:32:23.262Z,55.40
2017-08-23T07:34:50.946Z,55.40
2017-08-23T07:37:17.802Z,55.30
2017-08-23T07:39:44.775Z,54.50
2017-08-23T07:42:11.666Z,53.20
2017-08-23T07:44:38.620Z,53.50
2017-08-23T07:47:05.536Z,54.00
2017-08-23T07:49:32.485Z,53.10
2017-08-23T07:51:59.412Z,52.80
2017-08-23T07:54:26.302Z,53.30
2017-08-23T07:56:53.338Z,53.30
2017-08-23T07:59:20.947Z,54.00
2017-08-23T08:01:47.822Z,53.90
2017-08-23T08:04:14.748Z,51.80
2017-08-23T08:06:41.619Z,52.20
2017-08-23T08:09:08.635Z,52.10
2017-08-23T08:11:35.584Z,50.20
2017-08-23T08:14:02.529Z,49.70
2017-08-23T08:16:29.412Z,49.00
2017-08-23T08:18:57.095Z,49.70
2017-08-23T08:21:23.983Z,49.70
2017-08-23T08:23:51.059Z,47.80
2017-08-23T08:26:18.040Z,45.60
2017-08-23T08:28:45.051Z,44.20
2017-08-23T08:31:12.799Z,42.10
2017-08-23T08:33:39.887Z,42.10
2017-08-23T08:36:06.898Z,40.60
2017-08-23T08:38:34.800Z,37.50
2017-08-23T08:41:01.813Z,37.50
2017-08-23T08:43:28.837Z,36.80
2017-08-23T08:45:55.926Z,37.20
2017-08-23T08:48:22.950Z,37.50
2017-08-23T08:50:49.963Z,34.10
2017-08-23T08:53:17.064Z,33.40
2017-08-23T08:55:44.090Z,34.80
2017-08-23T08:58:11.094Z,34.00
2017-08-23T09:00:38.248Z,32.70
2017-08-23T09:03:05.261Z,29.80
2017-08-23T09:05:32.286Z,29.80
2017-08-23T09:07:59.392Z,28.60
2017-08-23T09:10:26.438Z,29.10
2017-08-23T09:12:53.569Z,28.20
2017-08-23T09:15:20.546Z,28.20
2017-08-23T09:17:47.607Z,29.20
2017-08-23T09:20:14.740Z,27.20
2017-08-23T09:22:41.607Z,28.40
2017-08-23T09:25:08.474Z,28.60
2017-08-23T09:27:35.574Z,28.60
2017-08-23T09:30:02.617Z,28.30
2017-08-23T09:32:29.695Z,28.80
2017-08-23T09:34:56.740Z,30.70
2017-08-23T09:37:23.632Z,31.30
2017-08-23T09:39:50.921Z,31.50
2017-08-23T09:42:18.544Z,33.00
2017-08-23T09:44:45.525Z,33.00
2017-08-23T09:47:12.477Z,32.80
2017-08-23T09:49:40.098Z,32.50
2017-08-23T09:52:06.977Z,32.50
2017-08-23T09:54:37.751Z,32.30
2017-08-23T09:57:08.263Z,33.70
2017-08-23T09:59:38.043Z,32.50
2017-08-23T10:02:05.453Z,34.20
2017-08-23T10:04:38.344Z,32.70
2017-08-23T10:07:08.454Z,35.20
2017-08-23T10:09:37.973Z,36.00
2017-08-23T10:12:05.276Z,35.90
2017-08-23T10:14:35.327Z,35.90
2017-08-23T10:17:04.179Z,35.40
2017-08-23T10:19:31.975Z,34.40
2017-08-23T10:21:59.089Z,34.30
2017-08-23T10:24:26.227Z,34.80
2017-08-23T10:26:53.319Z,35.30
2017-08-23T10:29:23.603Z,35.40
2017-08-23T10:31:52.906Z,36.00
2017-08-23T10:34:19.852Z,35.60
2017-08-23T10:36:46.831Z,34.70
2017-08-23T10:39:14.713Z,35.40
2017-08-23T10:41:41.772Z,35.40
2017-08-23T10:44:09.715Z,35.60
2017-08-23T10:46:36.698Z,37.10
2017-08-23T10:49:03.599Z,38.50
2017-08-23T10:51:31.945Z,34.70
2017-08-23T10:53:58.884Z,34.30
2017-08-23T10:56:25.806Z,35.20
2017-08-23T10:58:52.808Z,34.30
2017-08-23T11:01:19.958Z,35.30
2017-08-23T11:03:46.892Z,35.10
2017-08-23T11:06:13.897Z,34.20
2017-08-23T11:08:40.879Z,31.90
2017-08-23T11:11:11.003Z,32.70
2017-08-23T11:13:38.011Z,33.40
2017-08-23T11:16:04.960Z,34.10
2017-08-23T11:18:31.886Z,33.40
2017-08-23T11:20:59.643Z,33.90
2017-08-23T11:23:26.553Z,33.90
2017-08-23T11:25:53.516Z,34.40
2017-08-23T11:28:20.465Z,34.60
2017-08-23T11:30:48.129Z,32.30
2017-08-23T11:33:15.289Z,32.30
2017-08-23T11:35:57.069Z,32.00
2017-08-23T11:38:40.505Z,31.90
2017-08-23T11:41:09.046Z,33.50
2017-08-23T11:43:36.287Z,31.70
2017-08-23T11:46:03.375Z,33.30
2017-08-23T11:48:30.580Z,34.60
2017-08-23T11:50:57.774Z,34.20
2017-08-23T11:53:24.711Z,33.20
2017-08-23T11:55:51.696Z,32.60
2017-08-23T11:58:18.770Z,34.00
2017-08-23T12:00:45.765Z,34.20
2017-08-23T12:03:12.741Z,33.90
2017-08-23T12:05:42.346Z,33.20
2017-08-23T12:08:09.660Z,33.10
2017-08-23T12:10:36.754Z,33.70
2017-08-23T12:15:43.151Z,34.00
2017-08-23T12:18:10.389Z,34.80
2017-08-23T12:20:37.571Z,33.80
2017-08-23T12:23:04.925Z,33.80
2017-08-23T12:25:31.977Z,32.10
2017-08-23T12:28:01.752Z,33.20
2017-08-23T12:30:28.745Z,32.70
2017-08-23T12:32:56.887Z,33.50
2017-08-23T12:35:33.489Z,34.00
2017-08-23T12:38:00.697Z,33.70
2017-08-23T12:40:28.070Z,33.50
2017-08-23T12:42:57.941Z,33.80
2017-08-23T12:45:28.063Z,33.90
2017-08-23T12:47:55.082Z,35.00
2017-08-23T12:50:22.113Z,34.00
2017-08-23T12:52:49.321Z,34.00
2017-08-23T12:55:17.636Z,32.80
2017-08-23T12:57:44.657Z,32.50
2017-08-23T13:00:11.552Z,34.10
2017-08-23T13:02:38.431Z,32.50
2017-08-23T13:05:05.407Z,34.20
2017-08-23T13:07:37.330Z,33.90
2017-08-23T13:13:03.899Z,34.30
2017-08-23T13:15:48.555Z,34.90
2017-08-23T13:24:14.049Z,35.90
2017-08-23T13:26:59.408Z,35.20
2017-08-23T13:29:47.874Z,35.20
2017-08-23T13:32:35.752Z,36.40
2017-08-23T13:35:19.485Z,37.00
2017-08-23T13:38:04.211Z,36.90
2017-08-23T13:40:43.058Z,34.70
2017-08-23T13:45:56.389Z,35.80
2017-08-23T13:48:23.320Z,38.10
2017-08-23T13:50:51.185Z,38.00
2017-08-23T13:53:18.190Z,35.30
2017-08-23T13:55:45.077Z,35.80
2017-08-23T13:58:11.985Z,34.70
2017-08-23T14:00:39.067Z,35.60
2017-08-23T14:03:06.024Z,35.20
2017-08-23T14:05:32.950Z,35.50
2017-08-23T14:07:59.900Z,34.80
2017-08-23T14:10:26.785Z,35.20
2017-08-23T14:12:54.503Z,36.10
2017-08-23T14:15:21.434Z,36.10
2017-08-23T14:17:48.413Z,36.60
2017-08-23T14:20:15.293Z,36.70
2017-08-23T14:22:42.926Z,35.20
2017-08-23T14:25:09.856Z,35.20
2017-08-23T14:27:36.764Z,35.80
2017-08-23T14:30:03.713Z,35.50
2017-08-23T14:32:30.763Z,35.00
2017-08-23T14:34:58.184Z,35.60
2017-08-23T14:37:25.980Z,36.70
2017-08-23T14:39:52.928Z,36.60
2017-08-23T14:42:20.584Z,35.90
2017-08-23T14:44:47.666Z,37.50
2017-08-23T14:47:14.571Z,36.70
2017-08-23T14:49:41.547Z,36.70
2017-08-23T14:52:08.534Z,38.00
2017-08-23T14:54:35.481Z,36.50
2017-08-23T14:57:02.462Z,36.60
2017-08-23T14:59:29.370Z,36.80
2017-08-23T15:01:56.352Z,38.00
2017-08-23T15:04:23.365Z,36.50
2017-08-23T15:06:50.269Z,36.50
2017-08-23T15:09:17.284Z,36.50
2017-08-23T15:11:45.079Z,36.00
2017-08-23T15:14:12.023Z,36.00
2017-08-23T15:16:39.137Z,36.60
2017-08-23T15:19:06.104Z,37.70
2017-08-23T15:21:33.822Z,36.50
2017-08-23T15:24:00.824Z,36.40
2017-08-23T15:26:27.718Z,35.60
2017-08-23T15:28:54.610Z,35.50
2017-08-23T15:31:21.567Z,35.80
2017-08-23T15:33:48.520Z,36.20
2017-08-23T15:36:15.476Z,36.30
2017-08-23T15:38:42.366Z,36.30
2017-08-23T15:41:09.341Z,36.10
2017-08-23T15:43:36.339Z,36.10
2017-08-23T15:46:03.411Z,35.90
2017-08-23T15:48:30.376Z,36.00
2017-08-23T15:50:58.100Z,36.00
2017-08-23T15:53:25.020Z,35.90
2017-08-23T15:55:51.941Z,35.60
2017-08-23T15:58:18.989Z,35.30
2017-08-23T16:00:46.674Z,35.20
2017-08-23T16:03:13.685Z,35.20
2017-08-23T16:05:49.476Z,35.80
2017-08-23T16:08:20.911Z,34.60
2017-08-23T16:10:51.040Z,33.70
2017-08-23T16:13:18.361Z,36.90
2017-08-23T16:15:50.404Z,36.90
2017-08-23T16:18:20.339Z,36.00
2017-08-23T16:20:48.866Z,36.30
2017-08-23T16:23:17.830Z,37.10
2017-08-23T16:25:47.381Z,36.90
2017-08-23T16:28:16.056Z,36.90
2017-08-23T16:30:43.396Z,36.90
2017-08-23T16:33:10.422Z,35.40
2017-08-23T16:35:37.360Z,35.30
2017-08-23T16:38:05.095Z,35.00
2017-08-23T16:40:33.866Z,34.90
2017-08-23T16:43:00.905Z,36.10
2017-08-23T16:45:30.429Z,37.90
2017-08-23T16:47:57.496Z,38.40
2017-08-23T16:50:24.527Z,38.40
2017-08-23T16:52:51.574Z,38.90
2017-08-23T16:55:18.564Z,38.90
2017-08-23T16:57:46.331Z,38.60
2017-08-23T17:00:13.332Z,38.50
2017-08-23T17:02:40.932Z,39.40
2017-08-23T17:05:08.733Z,39.90
2017-08-23T17:07:35.696Z,39.80
2017-08-23T17:10:04.756Z,40.00
2017-08-23T17:12:32.121Z,40.90
2017-08-23T17:14:59.064Z,41.00
2017-08-23T17:17:25.972Z,41.10
2017-08-23T17:19:52.938Z,43.10
2017-08-23T17:22:19.936Z,42.30
2017-08-23T17:24:47.942Z,41.00
2017-08-23T17:27:14.947Z,40.90
2017-08-23T17:29:41.958Z,42.40
2017-08-23T17:32:08.884Z,46.30
2017-08-23T17:34:35.874Z,46.80
2017-08-23T17:37:04.065Z,50.10
2017-08-23T17:39:32.612Z,48.80
2017-08-23T17:42:00.347Z,51.00
2017-08-23T17:44:27.371Z,50.40
2017-08-23T17:46:54.451Z,51.10
2017-08-23T17:49:26.589Z,52.40
2017-08-23T17:51:55.043Z,53.30
2017-08-23T17:54:22.020Z,53.30
2017-08-23T17:56:48.958Z,53.10
2017-08-23T17:59:15.984Z,53.80
2017-08-23T18:01:42.966Z,53.10
2017-08-23T18:04:09.999Z,53.00
2017-08-23T18:06:36.978Z,53.70
2017-08-23T18:09:04.145Z,54.40
2017-08-23T18:11:31.972Z,55.80
2017-08-23T18:14:00.370Z,55.70
2017-08-23T18:16:27.353Z,56.40
2017-08-23T18:18:55.085Z,56.50
2017-08-23T18:21:22.108Z,56.50
2017-08-23T18:23:49.050Z,56.90
2017-08-23T18:26:16.029Z,57.00
2017-08-23T18:28:42.928Z,57.60
2017-08-23T18:31:09.888Z,57.80
2017-08-23T18:33:36.768Z,58.30
2017-08-23T18:36:03.668Z,58.50
2017-08-23T18:38:30.659Z,58.60
2017-08-23T18:40:57.552Z,59.10
2017-08-23T18:43:24.488Z,59.30
2017-08-23T18:45:52.217Z,58.20
2017-08-23T18:48:19.207Z,58.10
2017-08-23T18:50:46.179Z,58.70
2017-08-23T18:53:13.106Z,59.20
2017-08-23T18:55:40.063Z,60.40
2017-08-23T18:58:07.030Z,60.70
2017-08-23T19:00:34.780Z,61.60
2017-08-23T19:03:01.641Z,60.80
2017-08-23T19:05:28.515Z,60.40
2017-08-23T19:07:55.573Z,60.90
2017-08-23T19:10:23.233Z,61.40
2017-08-23T19:12:50.198Z,60.70
2017-08-23T19:15:17.955Z,61.20
2017-08-23T19:17:45.576Z,60.90
2017-08-23T19:20:12.630Z,60.80
2017-08-23T19:22:39.546Z,61.10
2017-08-23T19:25:06.457Z,61.40
2017-08-23T19:27:34.160Z,61.40
2017-08-23T19:30:01.062Z,61.40
2017-08-23T19:32:28.765Z,61.00
2017-08-23T19:34:55.665Z,61.00
2017-08-23T19:37:22.544Z,60.80
2017-08-23T19:39:49.521Z,60.80
2017-08-23T19:42:16.433Z,61.10
2017-08-23T19:44:43.377Z,61.90
2017-08-23T19:47:10.265Z,61.30
2017-08-23T19:49:37.143Z,61.30
2017-08-23T19:52:04.105Z,61.60
2017-08-23T19:54:31.720Z,62.00
2017-08-23T19:56:58.649Z,62.00
2017-08-23T19:59:25.589Z,62.70
2017-08-23T20:01:52.460Z,63.30
2017-08-23T20:04:19.421Z,63.20
2017-08-23T20:06:46.336Z,63.50
2017-08-23T20:09:13.234Z,63.60
2017-08-23T20:11:40.892Z,63.60
2017-08-23T20:14:08.571Z,64.10
2017-08-23T20:16:35.548Z,63.90
2017-08-23T20:19:02.421Z,63.80
2017-08-23T20:21:29.273Z,64.20
2017-08-23T20:23:56.219Z,64.80
2017-08-23T20:26:23.109Z,64.50
2017-08-23T20:28:49.976Z,64.80
2017-08-23T20:31:16.911Z,64.90
2017-08-23T20:33:43.808Z,64.60
2017-08-23T20:36:10.805Z,64.60
2017-08-23T20:38:37.700Z,64.90
2017-08-23T20:41:04.602Z,65.40
2017-08-23T20:43:31.614Z,65.20
2017-08-23T20:45:59.287Z,65.10
2017-08-23T20:48:26.232Z,65.10
2017-08-23T20:50:53.177Z,65.20
2017-08-23T20:53:20.058Z,65.30
2017-08-23T20:55:47.089Z,64.80
2017-08-23T20:58:13.968Z,64.00
2017-08-23T21:00:40.964Z,62.70
2017-08-23T21:03:07.861Z,62.40
2017-08-23T21:05:35.448Z,62.70
2017-08-23T21:08:02.462Z,63.30
2017-08-23T21:10:29.359Z,63.30
2017-08-23T21:12:56.301Z,63.30
2017-08-23T21:15:23.896Z,63.70
2017-08-23T21:17:50.761Z,63.60
2017-08-23T21:20:17.700Z,63.70
2017-08-23T21:22:44.587Z,63.50
2017-08-23T21:25:12.386Z,65.00
2017-08-23T21:27:39.363Z,64.10
2017-08-23T21:30:06.239Z,64.80
2017-08-23T21:32:33.203Z,64.90
2017-08-23T21:35:00.811Z,65.30
2017-08-23T21:37:27.680Z,65.20
2017-08-23T21:39:54.617Z,65.20
2017-08-23T21:42:21.501Z,65.40
2017-08-23T21:44:49.120Z,65.70
2017-08-23T21:47:16.303Z,65.70
2017-08-23T21:49:43.923Z,66.70
2017-08-23T21:52:10.869Z,66.40
2017-08-23T21:54:37.814Z,66.20
2017-08-23T21:57:04.737Z,66.10
2017-08-23T21:59:31.669Z,66.20
2017-08-23T22:01:58.972Z,65.80
2017-08-23T22:04:25.838Z,65.90
2017-08-23T22:06:52.728Z,65.50
2017-08-23T22:09:19.672Z,65.50
2017-08-23T22:11:46.536Z,65.60
2017-08-23T22:14:13.486Z,65.90
2017-08-23T22:16:40.402Z,65.70
2017-08-23T22:19:07.433Z,65.20
2017-08-23T22:21:34.301Z,65.00
2017-08-23T22:24:01.181Z,65.20
2017-08-23T22:26:28.111Z,65.40
2017-08-23T22:28:54.990Z,66.00
2017-08-23T22:31:21.961Z,66.10
2017-08-23T22:33:49.555Z,67.00
2017-08-23T22:36:16.442Z,67.00
2017-08-23T22:38:43.392Z,67.30
2017-08-23T22:41:10.276Z,67.50
2017-08-23T22:43:37.260Z,67.70
2017-08-23T22:46:04.145Z,67.50
2017-08-23T22:48:31.773Z,67.80
2017-08-23T22:50:58.708Z,67.80
2017-08-23T22:53:25.657Z,67.90
2017-08-23T22:55:52.533Z,68.00
2017-08-23T22:58:19.475Z,68.10
2017-08-23T23:00:46.358Z,68.00
2017-08-23T23:03:13.250Z,67.70
2017-08-23T23:05:40.195Z,67.80
2017-08-23T23:08:07.057Z,67.90
2017-08-23T23:10:33.922Z,68.10
2017-08-23T23:13:03.735Z,68.20
2017-08-23T23:15:32.905Z,68.20
2017-08-23T23:17:59.924Z,68.50
2017-08-23T23:20:27.624Z,68.40
2017-08-23T23:22:56.576Z,68.40
2017-08-23T23:25:23.490Z,68.30
2017-08-23T23:27:50.361Z,68.20
2017-08-23T23:30:17.277Z,67.60
2017-08-23T23:32:44.908Z,67.70
2017-08-23T23:35:11.785Z,67.70
2017-08-23T23:37:38.732Z,67.70
2017-08-23T23:40:05.615Z,67.80
2017-08-23T23:42:32.563Z,67.70
2017-08-23T23:44:59.433Z,67.70
2017-08-23T23:47:26.287Z,68.00
2017-08-23T23:49:53.229Z,68.30
2017-08-23T23:52:20.170Z,68.40
2017-08-23T23:54:47.045Z,68.10
2017-08-23T23:57:14.730Z,68.10
2017-08-23T23:59:41.656Z,68.10
